Terminal Aerodrome Forecast
Issued by NWS

Home | Current Version | Previous Version | Text Only | Print | Product List | Glossary On
Versions: 1 2 3 4 5 6 7 8 9 10 11 12 13 14 15 16 17 18 19 20 21 22 23 24
000
FTAK31 PAFA 222330
TAFAFA
TAF
PAFA 222330Z 2300/2406 VRB05KT P6SM VCSH FEW070 BKN120 BKN170
     FM231000 24005KT P6SM -SHRA SCT030 BKN050 OVC070
     FM231800 26005KT P6SM VCSH SCT070 OVC100=

USA.gov is the U.S. government's official web portal to all federal, state and local government web resources and services.